Time;durP1;ratioP1;P1;durP2;ratioP2;P2;SDS_P1;SDS_P2;PMS_P1;PMS_P2;Temp;Humidity;BMP_temperature;BMP_pressure;BME280_temperature;BME280_humidity;BME280_pressure;Samples;Min_cycle;Max_cycle;Signal;HPM_P1;HPM_P2
2023/11/05 00:00:55;;;;;;;1.60;1.10;;;10.70;98.20;;;;;;4968013;28;20477;-88
2023/11/05 00:03:21;;;;;;;1.60;1.20;;;10.70;98.20;;;;;;4994571;28;20516;-85
2023/11/05 00:05:48;;;;;;;1.60;1.20;;;10.70;98.20;;;;;;4973165;28;20963;-85
2023/11/05 00:08:15;;;;;;;1.60;1.20;;;10.70;98.20;;;;;;4994683;28;20584;-83
2023/11/05 00:10:42;;;;;;;1.57;1.10;;;10.70;98.20;;;;;;4977413;28;20461;-86
2023/11/05 00:13:10;;;;;;;1.53;1.10;;;10.70;98.20;;;;;;4988213;28;20496;-87
2023/11/05 00:15:39;;;;;;;1.53;1.10;;;10.70;98.20;;;;;;4979116;28;20470;-87
2023/11/05 00:18:06;;;;;;;1.60;1.20;;;10.70;98.20;;;;;;4971646;28;20469;-86
2023/11/05 00:20:32;;;;;;;1.60;1.13;;;10.70;98.20;;;;;;4990165;28;20487;-86
2023/11/05 00:23:00;;;;;;;1.60;1.20;;;10.60;98.20;;;;;;5000492;28;20615;-84
2023/11/05 00:25:26;;;;;;;1.57;1.20;;;10.70;98.20;;;;;;4988260;28;20548;-86
2023/11/05 00:27:53;;;;;;;1.60;1.10;;;10.70;98.20;;;;;;4992390;28;20489;-85
2023/11/05 00:30:21;;;;;;;1.60;1.10;;;10.70;98.20;;;;;;4987851;28;21051;-85
2023/11/05 00:32:51;;;;;;;1.60;1.10;;;10.80;98.20;;;;;;4988259;28;20488;-88
2023/11/05 00:35:18;;;;;;;1.60;1.10;;;10.80;98.20;;;;;;4982989;28;20825;-85
2023/11/05 00:37:45;;;;;;;1.60;1.10;;;10.90;98.20;;;;;;4977652;28;20484;-85
2023/11/05 00:40:12;;;;;;;1.60;1.10;;;10.90;98.20;;;;;;4983132;28;20473;-86
2023/11/05 00:42:39;;;;;;;1.60;1.10;;;11.00;98.20;;;;;;4990366;28;20927;-85
2023/11/05 00:45:07;;;;;;;1.60;1.10;;;11.00;98.20;;;;;;4983250;28;20471;-85
2023/11/05 00:47:36;;;;;;;1.60;1.10;;;11.10;98.20;;;;;;4987882;28;20488;-87
2023/11/05 00:50:03;;;;;;;1.60;1.10;;;11.10;98.20;;;;;;4983931;28;20587;-86
2023/11/05 00:52:29;;;;;;;1.60;1.20;;;11.10;98.20;;;;;;4989697;28;20483;-86
2023/11/05 00:54:56;;;;;;;1.60;1.10;;;11.10;98.20;;;;;;4987935;28;20492;-86
2023/11/05 00:57:23;;;;;;;1.60;1.10;;;11.10;98.20;;;;;;4988720;28;20571;-85
2023/11/05 00:59:50;;;;;;;1.60;1.10;;;11.10;98.20;;;;;;4988982;28;20539;-83
2023/11/05 01:02:17;;;;;;;1.60;1.13;;;11.10;98.20;;;;;;4989155;28;20565;-85
2023/11/05 01:04:49;;;;;;;1.60;1.10;;;11.10;98.20;;;;;;4988597;28;20469;-85
2023/11/05 01:07:16;;;;;;;1.57;1.10;;;11.00;98.20;;;;;;4974029;28;20483;-86
2023/11/05 01:09:43;;;;;;;1.60;1.10;;;11.00;98.20;;;;;;4985370;28;20465;-88
2023/11/05 01:12:16;;;;;;;1.57;1.10;;;11.00;98.20;;;;;;4986594;28;20488;-87
2023/11/05 01:14:43;;;;;;;1.60;1.10;;;11.00;98.20;;;;;;4992588;28;20693;-86
2023/11/05 01:17:12;;;;;;;1.60;1.20;;;11.00;98.20;;;;;;4988742;28;20488;-89
2023/11/05 01:22:19;;;;;;;1.60;1.00;;;11.00;98.20;;;;;;4995177;28;20674;-87
2023/11/05 01:24:50;;;;;;;1.57;1.10;;;11.00;98.20;;;;;;4992461;28;20506;-88
2023/11/05 01:27:20;;;;;;;1.60;1.10;;;10.90;98.20;;;;;;4989088;28;20571;-85
2023/11/05 01:29:47;;;;;;;1.57;1.00;;;11.00;98.20;;;;;;4983792;28;20467;-87
2023/11/05 01:32:14;;;;;;;1.53;1.10;;;11.00;98.20;;;;;;4965578;28;20478;-86
2023/11/05 01:34:41;;;;;;;1.60;1.20;;;11.00;98.20;;;;;;4997200;28;20532;-84
2023/11/05 01:37:08;;;;;;;1.57;1.00;;;11.00;98.20;;;;;;5000265;28;20479;-86
2023/11/05 01:39:43;;;;;;;1.60;1.20;;;11.00;98.20;;;;;;5001201;28;20488;-86
2023/11/05 01:42:10;;;;;;;1.60;1.20;;;11.10;98.20;;;;;;4983263;28;20523;-87
2023/11/05 01:44:39;;;;;;;1.60;1.10;;;11.10;98.20;;;;;;5003458;28;20464;-88
2023/11/05 01:47:06;;;;;;;1.70;1.30;;;11.10;98.20;;;;;;4983216;28;20484;-90
2023/11/05 01:49:33;;;;;;;1.60;1.10;;;11.10;98.20;;;;;;4992114;28;20897;-85
2023/11/05 01:52:01;;;;;;;1.57;1.10;;;11.10;98.20;;;;;;4982667;28;20575;-85
2023/11/05 01:54:30;;;;;;;1.60;1.10;;;11.10;98.20;;;;;;4998441;28;20566;-85
2023/11/05 01:56:58;;;;;;;1.60;1.10;;;11.10;98.20;;;;;;4995649;28;21068;-85
2023/11/05 01:59:26;;;;;;;1.60;1.10;;;11.10;98.20;;;;;;5006719;28;20485;-86
2023/11/05 02:01:56;;;;;;;1.53;1.10;;;11.10;98.20;;;;;;4995465;28;20567;-87
2023/11/05 02:04:24;;;;;;;1.60;1.10;;;11.10;98.20;;;;;;4998283;28;20467;-88
2023/11/05 02:06:51;;;;;;;1.60;1.10;;;11.20;98.20;;;;;;4992936;28;20511;-86
2023/11/05 02:09:20;;;;;;;1.57;1.10;;;11.20;98.20;;;;;;4998139;28;20727;-87
2023/11/05 02:11:47;;;;;;;7.57;2.30;;;11.20;98.20;;;;;;4987245;28;20909;-86
2023/11/05 02:14:16;;;;;;;1.57;1.00;;;11.20;98.20;;;;;;4999766;28;20473;-85
2023/11/05 02:16:44;;;;;;;1.60;1.20;;;11.20;98.20;;;;;;4988376;28;20507;-86
2023/11/05 02:19:11;;;;;;;1.60;1.20;;;11.20;98.20;;;;;;4990330;28;20485;-84
2023/11/05 02:21:43;;;;;;;1.60;1.10;;;11.20;98.20;;;;;;4987605;28;20496;-85
2023/11/05 02:24:14;;;;;;;1.60;1.17;;;11.20;98.20;;;;;;4999581;28;20460;-88
2023/11/05 02:26:41;;;;;;;1.60;1.10;;;11.20;98.20;;;;;;4993262;28;21092;-86
2023/11/05 02:29:08;;;;;;;1.60;1.10;;;11.20;98.20;;;;;;5005750;28;20461;-84
2023/11/05 02:31:35;;;;;;;1.60;1.10;;;11.30;98.20;;;;;;4979017;28;21010;-85
2023/11/05 02:34:03;;;;;;;1.60;1.10;;;11.30;98.20;;;;;;4997316;28;20476;-86
2023/11/05 02:36:29;;;;;;;1.60;1.10;;;11.30;98.20;;;;;;4981612;28;20484;-84
2023/11/05 02:38:58;;;;;;;1.57;1.00;;;11.30;98.20;;;;;;5000989;28;20491;-85
2023/11/05 02:41:26;;;;;;;1.60;1.10;;;11.30;98.20;;;;;;4979805;28;20912;-85
2023/11/05 02:43:53;;;;;;;1.57;1.00;;;11.30;98.20;;;;;;4994514;28;20656;-85
2023/11/05 02:46:23;;;;;;;1.60;1.10;;;11.30;98.20;;;;;;4982347;28;20469;-86
2023/11/05 02:48:49;;;;;;;1.57;1.10;;;11.30;98.20;;;;;;4994833;28;20460;-85
2023/11/05 02:51:16;;;;;;;1.60;1.10;;;11.30;98.20;;;;;;4973678;28;20484;-83
2023/11/05 02:53:43;;;;;;;1.53;1.10;;;11.40;98.20;;;;;;4965536;28;20744;-85
2023/11/05 02:56:12;;;;;;;1.57;1.10;;;11.30;98.20;;;;;;4958158;28;20521;-85
2023/11/05 02:58:42;;;;;;;1.53;1.10;;;11.30;98.20;;;;;;4983712;28;20468;-85
2023/11/05 03:01:12;;;;;;;1.60;1.10;;;11.30;98.20;;;;;;4976453;28;20484;-84
2023/11/05 03:03:39;;;;;;;1.60;1.10;;;11.20;98.20;;;;;;4993622;28;20849;-85
2023/11/05 03:06:06;;;;;;;1.53;1.00;;;11.20;98.20;;;;;;4982011;28;20982;-86
2023/11/05 03:08:34;;;;;;;1.60;1.10;;;11.20;98.20;;;;;;4995534;28;20453;-84
2023/11/05 03:11:01;;;;;;;1.57;1.10;;;11.10;98.20;;;;;;4980512;28;20850;-85
2023/11/05 03:13:27;;;;;;;1.53;1.10;;;11.10;98.20;;;;;;4999314;28;20473;-85
2023/11/05 03:15:56;;;;;;;1.53;1.10;;;11.10;98.20;;;;;;4991838;28;20461;-87
2023/11/05 03:18:24;;;;;;;1.53;1.10;;;11.10;98.20;;;;;;5007159;28;20474;-86
2023/11/05 03:20:51;;;;;;;1.60;1.20;;;11.10;98.20;;;;;;4936201;28;1088065;-87
2023/11/05 03:23:18;;;;;;;1.60;1.20;;;11.10;98.20;;;;;;5001818;28;20735;-87
2023/11/05 03:25:44;;;;;;;1.60;1.10;;;11.10;98.20;;;;;;4996273;28;20471;-85
2023/11/05 03:28:12;;;;;;;1.53;1.10;;;11.10;98.20;;;;;;4966514;28;20877;-84
2023/11/05 03:30:39;;;;;;;1.53;1.10;;;11.10;98.20;;;;;;4984539;28;20485;-84
2023/11/05 03:33:08;;;;;;;1.53;1.10;;;11.10;98.20;;;;;;4972379;28;20507;-90
2023/11/05 03:35:44;;;;;;;1.57;1.00;;;11.10;98.20;;;;;;4984694;28;20574;-85
2023/11/05 03:38:11;;;;;;;1.60;1.10;;;11.10;98.20;;;;;;4990778;28;20562;-86
2023/11/05 03:40:38;;;;;;;1.50;1.10;;;11.10;98.20;;;;;;4996902;28;20524;-85
2023/11/05 03:43:05;;;;;;;1.57;1.10;;;11.10;98.20;;;;;;4989435;28;20550;-86
2023/11/05 03:45:31;;;;;;;1.60;1.20;;;11.10;98.20;;;;;;5000705;28;20471;-85
2023/11/05 03:47:58;;;;;;;1.60;1.10;;;11.10;98.20;;;;;;4980615;28;20490;-84
2023/11/05 03:50:28;;;;;;;1.53;1.00;;;11.10;98.20;;;;;;4997030;28;21071;-84
2023/11/05 03:52:56;;;;;;;1.60;1.20;;;11.10;98.20;;;;;;4994087;28;20492;-86
2023/11/05 03:55:23;;;;;;;1.60;1.20;;;11.10;98.20;;;;;;4999965;28;20460;-89
2023/11/05 03:58:01;;;;;;;1.53;1.10;;;11.10;98.20;;;;;;5001341;28;20487;-88
2023/11/05 04:00:28;;;;;;;1.53;1.10;;;11.10;98.20;;;;;;5001225;28;21072;-86
2023/11/05 04:02:54;;;;;;;1.60;1.20;;;11.10;98.20;;;;;;4992652;28;21077;-85
2023/11/05 04:05:21;;;;;;;1.60;1.20;;;11.10;98.20;;;;;;4995204;28;20976;-84
2023/11/05 04:07:50;;;;;;;1.60;1.10;;;11.10;98.20;;;;;;4999248;28;20497;-86
2023/11/05 04:10:20;;;;;;;1.53;1.10;;;11.10;98.20;;;;;;4993739;28;20488;-88
2023/11/05 04:12:46;;;;;;;1.53;1.00;;;11.10;98.20;;;;;;5006316;28;20505;-87
2023/11/05 04:15:26;;;;;;;1.57;1.10;;;11.10;98.20;;;;;;4993124;28;20463;-87
2023/11/05 04:17:53;;;;;;;1.60;1.10;;;11.10;98.20;;;;;;4989126;28;20879;-86
2023/11/05 04:20:25;;;;;;;1.60;1.10;;;11.10;98.20;;;;;;4997567;28;21047;-87
2023/11/05 04:23:18;;;;;;;1.60;1.20;;;11.00;98.20;;;;;;4991419;28;20486;-87
2023/11/05 04:25:45;;;;;;;1.60;1.10;;;11.00;98.20;;;;;;4999151;28;20471;-86
2023/11/05 04:28:20;;;;;;;1.60;1.10;;;11.00;98.20;;;;;;4989458;28;20480;-86
2023/11/05 04:30:47;;;;;;;1.60;1.27;;;11.00;98.20;;;;;;4997462;28;20484;-87
2023/11/05 04:33:17;;;;;;;1.60;1.20;;;11.00;98.20;;;;;;5016543;28;20464;-87
2023/11/05 04:35:44;;;;;;;1.53;1.10;;;11.00;98.20;;;;;;5000975;28;20464;-87
2023/11/05 04:38:12;;;;;;;1.53;1.10;;;11.00;98.20;;;;;;4989662;28;20999;-87
2023/11/05 04:40:39;;;;;;;1.57;1.10;;;11.00;98.20;;;;;;5001693;28;20488;-85
2023/11/05 04:43:06;;;;;;;1.60;1.30;;;11.00;98.20;;;;;;4991682;28;20480;-87
2023/11/05 04:45:34;;;;;;;1.60;1.10;;;11.00;98.20;;;;;;5005484;28;20507;-86
2023/11/05 04:48:01;;;;;;;1.60;1.10;;;11.00;98.20;;;;;;4993255;28;20487;-87
2023/11/05 04:50:27;;;;;;;1.57;1.10;;;11.10;98.20;;;;;;5001982;28;20477;-84
2023/11/05 04:52:56;;;;;;;1.53;1.10;;;11.10;98.20;;;;;;4993372;28;20918;-86
2023/11/05 04:55:33;;;;;;;1.57;1.10;;;11.10;98.20;;;;;;5006561;28;20468;-85
2023/11/05 04:58:00;;;;;;;1.57;1.10;;;11.10;98.20;;;;;;5002755;28;20483;-85
2023/11/05 05:00:29;;;;;;;1.50;1.10;;;11.10;98.20;;;;;;5000235;28;20492;-85
2023/11/05 05:03:01;;;;;;;1.53;1.10;;;11.10;98.20;;;;;;4989536;28;20492;-85
2023/11/05 05:05:27;;;;;;;1.60;1.10;;;11.10;98.20;;;;;;4999107;28;20460;-84
2023/11/05 05:07:54;;;;;;;1.60;1.10;;;11.10;98.20;;;;;;5003391;28;20494;-85
2023/11/05 05:10:24;;;;;;;1.53;1.10;;;11.10;98.20;;;;;;4996971;28;20481;-84
2023/11/05 05:12:52;;;;;;;1.60;1.20;;;11.10;98.20;;;;;;4990929;28;20990;-90
2023/11/05 05:15:19;;;;;;;1.57;1.10;;;11.10;98.20;;;;;;4988307;28;20469;-84
2023/11/05 05:17:46;;;;;;;1.60;1.10;;;11.10;98.20;;;;;;5001141;28;20483;-88
2023/11/05 05:20:16;;;;;;;1.57;1.00;;;11.10;98.20;;;;;;5001170;28;20525;-86
2023/11/05 05:22:46;;;;;;;1.60;1.20;;;11.10;98.20;;;;;;4991574;28;20694;-86
2023/11/05 05:25:23;;;;;;;1.57;1.10;;;11.10;98.20;;;;;;5002670;28;20524;-86
2023/11/05 05:27:51;;;;;;;1.60;1.10;;;11.10;98.20;;;;;;4989719;28;21030;-80
2023/11/05 05:30:18;;;;;;;1.50;1.00;;;11.10;98.20;;;;;;5000895;28;20508;-84
2023/11/05 05:32:46;;;;;;;1.57;1.10;;;11.10;98.20;;;;;;5012580;28;20490;-84
2023/11/05 05:35:13;;;;;;;1.60;1.20;;;11.10;98.20;;;;;;5005942;28;20465;-85
2023/11/05 05:37:40;;;;;;;1.60;1.10;;;11.00;98.20;;;;;;4993977;28;20485;-85
2023/11/05 05:40:36;;;;;;;1.60;1.10;;;11.00;98.20;;;;;;4998684;28;20501;-86
2023/11/05 05:43:04;;;;;;;1.60;1.00;;;11.00;98.20;;;;;;4988043;28;21030;-84
2023/11/05 05:45:31;;;;;;;1.53;1.10;;;11.00;98.20;;;;;;5007527;28;20986;-84
2023/11/05 05:50:53;;;;;;;1.60;1.10;;;11.00;98.20;;;;;;4970451;28;20844;-87
2023/11/05 05:53:32;;;;;;;1.60;1.20;;;11.00;98.20;;;;;;5019222;28;20482;-87
2023/11/05 05:56:12;;;;;;;1.50;1.10;;;11.00;98.20;;;;;;4986157;28;20475;-87
2023/11/05 05:58:41;;;;;;;1.57;1.07;;;11.00;98.20;;;;;;5010041;28;20555;-87
2023/11/05 06:01:12;;;;;;;1.60;1.10;;;11.00;98.20;;;;;;4986716;28;20483;-87
2023/11/05 06:03:39;;;;;;;1.50;1.00;;;11.00;98.20;;;;;;5007170;28;20609;-86
2023/11/05 06:06:07;;;;;;;1.60;1.10;;;11.00;98.20;;;;;;4993087;28;20527;-86
2023/11/05 06:08:34;;;;;;;1.57;1.10;;;11.00;98.20;;;;;;4992177;28;20478;-87
2023/11/05 06:11:00;;;;;;;1.57;1.10;;;10.90;98.20;;;;;;4990273;28;20983;-87
2023/11/05 06:13:30;;;;;;;1.60;1.10;;;10.90;98.20;;;;;;5002441;28;20980;-86
2023/11/05 06:16:02;;;;;;;1.60;1.10;;;10.90;98.20;;;;;;4990606;28;20933;-85
2023/11/05 06:18:32;;;;;;;1.60;1.10;;;10.90;98.20;;;;;;5002085;28;20496;-86
2023/11/05 06:24:02;;;;;;;1.50;1.10;;;10.80;98.20;;;;;;4999349;28;20837;-86
2023/11/05 06:26:35;;;;;;;1.57;1.10;;;10.80;98.20;;;;;;4988262;28;20485;-87
2023/11/05 06:29:06;;;;;;;1.60;1.10;;;10.80;98.20;;;;;;4999208;28;20556;-87
2023/11/05 06:31:43;;;;;;;1.60;1.10;;;10.80;98.20;;;;;;4991425;28;20807;-87
2023/11/05 06:34:10;;;;;;;1.57;1.10;;;10.70;98.20;;;;;;5007947;28;20464;-87
2023/11/05 06:36:58;;;;;;;1.60;1.10;;;10.70;98.20;;;;;;4998078;28;20488;-86
2023/11/05 06:39:28;;;;;;;1.57;1.10;;;10.70;98.20;;;;;;5008558;28;20460;-88
2023/11/05 06:42:02;;;;;;;1.57;1.10;;;10.70;98.20;;;;;;4997677;28;20495;-86
2023/11/05 06:44:36;;;;;;;1.60;1.10;;;10.70;98.20;;;;;;5011282;28;20499;-86
2023/11/05 06:47:07;;;;;;;1.57;1.10;;;10.70;98.20;;;;;;4995174;28;20542;-86
2023/11/05 06:49:41;;;;;;;1.57;1.10;;;10.70;98.20;;;;;;5014991;28;20472;-87
2023/11/05 06:52:08;;;;;;;1.60;1.10;;;10.70;98.20;;;;;;5000384;28;20495;-87
2023/11/05 06:54:41;;;;;;;1.57;1.00;;;10.70;98.20;;;;;;5002792;28;20468;-87
2023/11/05 06:57:13;;;;;;;1.57;1.10;;;10.70;98.20;;;;;;4995623;28;20483;-88
2023/11/05 06:59:40;;;;;;;1.60;1.10;;;10.70;98.20;;;;;;5007166;28;20468;-88
2023/11/05 07:02:12;;;;;;;1.60;1.10;;;10.70;98.20;;;;;;4991267;28;20480;-87
2023/11/05 07:04:49;;;;;;;1.60;1.03;;;10.70;98.20;;;;;;5000024;28;20461;-88
2023/11/05 07:07:16;;;;;;;1.57;1.00;;;10.70;98.20;;;;;;4995735;28;20479;-85
2023/11/05 07:09:43;;;;;;;1.53;1.10;;;10.70;98.20;;;;;;5003527;28;20888;-84
2023/11/05 07:12:11;;;;;;;1.53;1.10;;;10.70;98.20;;;;;;4999806;28;20470;-84
2023/11/05 07:14:37;;;;;;;1.53;1.10;;;10.70;98.20;;;;;;5003745;28;20556;-85
2023/11/05 07:17:05;;;;;;;1.60;1.20;;;10.70;98.20;;;;;;4987846;28;20522;-88
2023/11/05 07:19:33;;;;;;;1.60;1.10;;;10.70;98.20;;;;;;4989534;28;20466;-86
2023/11/05 07:22:23;;;;;;;1.60;1.10;;;10.70;98.20;;;;;;4986454;28;20575;-86
2023/11/05 07:24:53;;;;;;;1.60;1.10;;;10.70;98.20;;;;;;4993080;28;20983;-86
2023/11/05 07:27:27;;;;;;;1.60;1.17;;;10.70;98.20;;;;;;4989574;28;20580;-86
2023/11/05 07:29:57;;;;;;;1.50;1.10;;;10.70;98.20;;;;;;4982820;28;20479;-87
2023/11/05 07:32:29;;;;;;;1.60;1.20;;;10.70;98.20;;;;;;4983743;28;20569;-88
2023/11/05 07:35:05;;;;;;;1.57;1.07;;;10.70;98.20;;;;;;4997759;28;20460;-86
2023/11/05 07:37:43;;;;;;;1.60;1.10;;;10.70;98.20;;;;;;5001485;28;20511;-85
2023/11/05 07:40:11;;;;;;;1.60;1.20;;;10.70;98.20;;;;;;4985897;28;20517;-85
2023/11/05 07:42:42;;;;;;;1.60;1.20;;;10.70;98.20;;;;;;4986008;28;20473;-85
2023/11/05 07:45:10;;;;;;;1.53;1.10;;;10.70;98.20;;;;;;4991428;28;20462;-84
2023/11/05 07:47:38;;;;;;;1.60;1.10;;;10.70;98.20;;;;;;4993877;28;20568;-83
2023/11/05 07:50:10;;;;;;;1.60;1.20;;;10.70;98.20;;;;;;4982358;28;20485;-83
2023/11/05 07:52:37;;;;;;;1.60;1.10;;;10.70;98.20;;;;;;4989388;28;20484;-84
2023/11/05 07:55:05;;;;;;;1.60;1.10;;;10.70;98.20;;;;;;4992984;28;20556;-85
2023/11/05 07:57:33;;;;;;;1.57;1.10;;;10.70;98.20;;;;;;4986771;28;20493;-85
2023/11/05 08:00:03;;;;;;;1.60;1.10;;;10.70;98.20;;;;;;4987842;28;20485;-85
2023/11/05 08:02:33;;;;;;;1.60;1.27;;;10.80;98.20;;;;;;4991175;28;20484;-85
2023/11/05 08:05:03;;;;;;;1.60;1.20;;;10.80;98.20;;;;;;4987631;28;20472;-86
2023/11/05 08:07:48;;;;;;;1.50;1.00;;;10.90;98.20;;;;;;4983421;28;20491;-86
2023/11/05 08:10:15;;;;;;;1.60;1.10;;;11.00;98.20;;;;;;4987051;28;20489;-86
2023/11/05 08:12:42;;;;;;;1.60;1.10;;;11.00;98.20;;;;;;4994673;28;20678;-86
2023/11/05 08:15:13;;;;;;;1.53;1.10;;;11.10;98.20;;;;;;4987158;28;20468;-86
2023/11/05 08:17:48;;;;;;;1.53;1.10;;;11.10;98.20;;;;;;4990171;28;21135;-88
2023/11/05 08:21:20;;;;;;;1.60;1.13;;;11.20;98.20;;;;;;4977047;28;20492;-86
2023/11/05 08:23:51;;;;;;;1.57;1.10;;;11.20;98.20;;;;;;4945954;28;20981;-85
2023/11/05 08:26:22;;;;;;;1.57;1.10;;;11.20;98.20;;;;;;4975533;28;20487;-86
2023/11/05 08:28:55;;;;;;;1.60;1.20;;;11.20;98.20;;;;;;4975968;28;20476;-86
2023/11/05 08:31:34;;;;;;;1.60;1.10;;;11.20;98.20;;;;;;4963529;28;20943;-86
2023/11/05 08:34:06;;;;;;;1.60;1.27;;;11.30;98.20;;;;;;4990483;28;20464;-88
2023/11/05 08:37:39;;;;;;;1.60;1.10;;;11.40;98.20;;;;;;4976603;28;20538;-86
2023/11/05 08:40:09;;;;;;;1.80;1.60;;;11.40;98.20;;;;;;4971912;28;20489;-83
2023/11/05 08:42:36;;;;;;;1.60;1.10;;;11.40;98.20;;;;;;4992706;28;20509;-84
2023/11/05 08:45:11;;;;;;;1.60;1.00;;;11.50;98.20;;;;;;4992603;28;20486;-85
2023/11/05 08:47:41;;;;;;;1.60;1.10;;;11.50;98.20;;;;;;4985694;28;20495;-88
2023/11/05 08:50:19;;;;;;;1.60;1.20;;;11.50;98.20;;;;;;4981016;28;20584;-86
2023/11/05 08:52:55;;;;;;;1.57;1.00;;;11.50;98.20;;;;;;4987327;28;20616;-86
2023/11/05 08:55:28;;;;;;;1.60;1.10;;;11.60;98.20;;;;;;4985181;28;20499;-87
2023/11/05 08:58:00;;;;;;;1.57;1.00;;;11.60;98.20;;;;;;4982727;28;20528;-86
2023/11/05 09:00:34;;;;;;;1.60;1.10;;;11.60;98.20;;;;;;4982372;28;20567;-86
2023/11/05 09:03:12;;;;;;;1.60;1.07;;;11.70;98.20;;;;;;4981046;28;20488;-86
2023/11/05 09:05:42;;;;;;;1.57;1.00;;;11.70;98.20;;;;;;4991114;28;20475;-87
2023/11/05 09:08:14;;;;;;;1.60;1.10;;;11.80;98.20;;;;;;4990641;28;20849;-86
2023/11/05 09:10:47;;;;;;;1.60;1.10;;;11.80;98.20;;;;;;4989198;28;20497;-86
2023/11/05 09:13:14;;;;;;;1.60;1.00;;;11.90;98.20;;;;;;4979218;28;20562;-86
2023/11/05 09:15:40;;;;;;;1.60;1.10;;;11.90;98.20;;;;;;4985227;28;20490;-84
2023/11/05 09:18:07;;;;;;;1.57;1.07;;;12.00;98.20;;;;;;4971252;28;20490;-86
2023/11/05 09:20:42;;;;;;;1.60;1.00;;;12.00;98.20;;;;;;4967132;28;20508;-86
2023/11/05 09:23:12;;;;;;;1.60;1.00;;;12.00;98.20;;;;;;4996568;28;20535;-85
2023/11/05 09:25:39;;;;;;;1.60;1.10;;;12.10;98.20;;;;;;4986570;28;20468;-86
2023/11/05 09:28:07;;;;;;;1.60;1.10;;;12.10;98.20;;;;;;4987359;28;20605;-84
2023/11/05 09:30:34;;;;;;;1.60;1.10;;;12.10;98.20;;;;;;4987892;28;20490;-84
2023/11/05 09:33:01;;;;;;;1.60;1.00;;;12.10;98.20;;;;;;4989581;28;21035;-83
2023/11/05 09:35:28;;;;;;;1.60;1.00;;;12.10;98.20;;;;;;4987447;28;20467;-84
2023/11/05 09:37:58;;;;;;;1.60;1.10;;;12.00;98.20;;;;;;4982802;28;21006;-85
2023/11/05 09:40:25;;;;;;;1.60;1.10;;;12.10;98.20;;;;;;4994666;28;20476;-84
2023/11/05 09:42:58;;;;;;;1.60;1.00;;;12.10;98.20;;;;;;4999088;28;20864;-85
2023/11/05 09:45:33;;;;;;;1.60;1.10;;;12.10;98.20;;;;;;4988414;28;20477;-85
2023/11/05 09:48:06;;;;;;;1.60;1.00;;;12.10;98.20;;;;;;4985896;28;20480;-87
2023/11/05 09:50:34;;;;;;;1.60;1.10;;;12.10;98.20;;;;;;4981070;28;20485;-84
2023/11/05 09:53:22;;;;;;;1.57;1.00;;;12.10;98.20;;;;;;4983219;28;21022;-85
2023/11/05 09:55:52;;;;;;;1.60;1.07;;;12.20;98.20;;;;;;4976000;28;20472;-86
2023/11/05 09:58:22;;;;;;;1.60;1.00;;;12.20;98.20;;;;;;4989824;28;20547;-86
2023/11/05 10:00:53;;;;;;;1.53;1.00;;;12.30;98.20;;;;;;4976419;28;20487;-86
2023/11/05 10:03:22;;;;;;;1.60;1.07;;;12.30;98.20;;;;;;5001165;28;20470;-85
2023/11/05 10:05:49;;;;;;;1.60;1.07;;;12.30;98.20;;;;;;4973499;28;20461;-84
2023/11/05 10:08:16;;;;;;;1.60;1.10;;;12.40;98.20;;;;;;5000937;28;20956;-86
2023/11/05 10:10:45;;;;;;;1.60;1.10;;;12.40;98.20;;;;;;4980233;28;20498;-84
2023/11/05 10:13:13;;;;;;;1.60;1.00;;;12.50;98.20;;;;;;4984587;28;21013;-84
2023/11/05 10:15:43;;;;;;;1.60;1.00;;;12.40;98.20;;;;;;4981825;28;20499;-84
2023/11/05 10:18:18;;;;;;;1.57;1.00;;;12.40;98.20;;;;;;4987304;28;20506;-85
2023/11/05 10:20:56;;;;;;;1.60;1.10;;;12.40;98.20;;;;;;4986912;28;20503;-85
2023/11/05 10:26:28;;;;;;;1.57;1.10;;;12.40;98.20;;;;;;4977680;28;20487;-84
2023/11/05 10:28:58;;;;;;;1.60;1.10;;;12.40;98.20;;;;;;4991971;28;20558;-85
2023/11/05 10:31:27;;;;;;;1.60;1.10;;;12.40;98.20;;;;;;4978221;28;20488;-82
2023/11/05 10:33:59;;;;;;;1.60;1.10;;;12.30;98.20;;;;;;4987855;28;21111;-86
2023/11/05 10:36:27;;;;;;;1.60;1.00;;;12.30;98.20;;;;;;4977555;28;20517;-83
2023/11/05 10:38:54;;;;;;;2.03;1.83;;;12.30;98.20;;;;;;4993018;28;20468;-84
2023/11/05 10:41:22;;;;;;;1.60;1.10;;;12.30;98.20;;;;;;4974101;28;20484;-84
2023/11/05 10:44:50;;;;;;;1.53;1.00;;;12.40;98.20;;;;;;4987637;28;20556;-82
2023/11/05 10:48:01;;;;;;;1.53;1.00;;;12.50;98.20;;;;;;4990292;28;20924;-83
2023/11/05 10:50:30;;;;;;;1.57;1.10;;;12.60;98.20;;;;;;4983400;28;20469;-84
2023/11/05 10:52:59;;;;;;;1.60;1.10;;;12.70;98.20;;;;;;4981770;28;20916;-87
2023/11/05 10:55:34;;;;;;;1.60;1.00;;;12.70;98.20;;;;;;4984971;28;20851;-85
2023/11/05 10:58:08;;;;;;;1.60;1.03;;;12.70;98.20;;;;;;4982098;28;20475;-86
2023/11/05 11:01:05;;;;;;;1.53;1.00;;;12.80;98.20;;;;;;4983068;28;21345;-84
2023/11/05 11:03:32;;;;;;;1.57;1.00;;;12.90;98.20;;;;;;4970199;28;20480;-83
2023/11/05 11:06:02;;;;;;;1.57;1.00;;;12.90;98.20;;;;;;4973594;28;20473;-85
2023/11/05 11:08:30;;;;;;;1.53;1.00;;;12.90;98.20;;;;;;4994308;28;20522;-84
2023/11/05 11:11:09;;;;;;;1.60;1.00;;;12.90;98.20;;;;;;4972848;28;20537;-80
2023/11/05 11:13:38;;;;;;;1.57;1.00;;;12.80;98.20;;;;;;4990937;28;20468;-82
2023/11/05 11:16:05;;;;;;;1.57;1.07;;;12.70;98.20;;;;;;4974155;28;20458;-78
2023/11/05 11:19:05;;;;;;;1.60;1.10;;;12.50;98.20;;;;;;4990864;28;21012;-82
2023/11/05 11:21:38;;;;;;;1.57;1.00;;;12.50;98.20;;;;;;5367264;22;20480;-80
2023/11/05 11:24:20;;;;;;;1.60;1.10;;;12.40;98.20;;;;;;5003962;28;20552;-83
2023/11/05 11:26:48;;;;;;;1.57;1.00;;;12.40;98.20;;;;;;4974319;28;20556;-82
2023/11/05 11:29:19;;;;;;;1.60;1.00;;;12.30;98.20;;;;;;4982602;28;20477;-81
2023/11/05 11:31:46;;;;;;;1.53;1.00;;;12.20;98.20;;;;;;4980902;28;20611;-80
2023/11/05 11:34:20;;;;;;;1.60;1.00;;;12.20;98.20;;;;;;4994658;28;21015;-81
2023/11/05 11:37:01;;;;;;;1.60;1.10;;;12.20;98.20;;;;;;4985073;28;20828;-83
2023/11/05 11:39:29;;;;;;;1.57;1.00;;;12.20;98.20;;;;;;4990559;28;20978;-81
2023/11/05 11:41:56;;;;;;;1.53;1.00;;;12.20;98.20;;;;;;4987203;28;20478;-79
2023/11/05 11:44:24;;;;;;;1.60;1.00;;;12.20;98.20;;;;;;4990436;28;20516;-79
2023/11/05 11:46:51;;;;;;;1.57;1.00;;;12.10;98.20;;;;;;4985610;28;20492;-81
2023/11/05 11:49:18;;;;;;;1.60;1.10;;;12.10;98.20;;;;;;4994177;28;20481;-83
2023/11/05 11:51:45;;;;;;;1.60;1.10;;;12.00;98.20;;;;;;4982895;28;20946;-84
2023/11/05 11:54:14;;;;;;;1.57;0.90;;;12.00;98.20;;;;;;4993817;28;20512;-83
2023/11/05 11:56:41;;;;;;;1.57;1.00;;;12.00;98.20;;;;;;4981155;28;20550;-81
2023/11/05 11:59:09;;;;;;;1.57;1.00;;;12.10;98.20;;;;;;4992172;28;20509;-83
2023/11/05 12:01:39;;;;;;;1.60;1.00;;;12.10;98.20;;;;;;4981708;28;20483;-81
2023/11/05 12:04:08;;;;;;;1.53;0.97;;;12.10;98.20;;;;;;4993798;28;20468;-80
2023/11/05 12:06:43;;;;;;;1.60;1.10;;;12.20;98.20;;;;;;4979541;28;20488;-82
2023/11/05 12:09:21;;;;;;;1.60;1.00;;;12.20;98.20;;;;;;4990587;28;20476;-81
2023/11/05 12:11:49;;;;;;;1.53;0.90;;;12.30;98.20;;;;;;4984271;28;21204;-80
2023/11/05 12:14:21;;;;;;;1.60;1.00;;;12.30;98.20;;;;;;4990073;28;20492;-80
2023/11/05 12:16:47;;;;;;;1.60;1.00;;;12.30;98.20;;;;;;4986671;28;20925;-78
2023/11/05 12:19:15;;;;;;;1.60;1.00;;;12.30;98.20;;;;;;4995112;28;20492;-78
2023/11/05 12:21:42;;;;;;;1.57;1.10;;;12.30;98.20;;;;;;4985899;28;21060;-78
2023/11/05 12:24:10;;;;;;;1.60;1.10;;;12.20;98.20;;;;;;4994525;28;20978;-78
2023/11/05 12:26:41;;;;;;;1.57;1.03;;;12.20;98.20;;;;;;4983903;28;20567;-79
2023/11/05 12:29:11;;;;;;;1.53;1.00;;;12.20;98.20;;;;;;4994496;28;20471;-79
2023/11/05 12:31:39;;;;;;;1.57;1.00;;;12.10;98.20;;;;;;4983294;28;20491;-78
2023/11/05 12:34:06;;;;;;;1.53;1.00;;;12.10;98.20;;;;;;4996991;28;20480;-80
2023/11/05 12:36:33;;;;;;;1.57;1.03;;;12.00;98.20;;;;;;4984203;28;20497;-79
2023/11/05 12:39:01;;;;;;;1.57;1.10;;;12.00;98.20;;;;;;4997409;28;20473;-79
2023/11/05 12:41:30;;;;;;;1.57;1.10;;;12.00;98.20;;;;;;4981199;28;20485;-80
2023/11/05 12:43:59;;;;;;;1.57;1.00;;;12.00;98.20;;;;;;5000002;28;21026;-81
2023/11/05 12:47:02;;;;;;;1.60;1.00;;;12.00;98.20;;;;;;4989487;28;20484;-81
2023/11/05 12:52:03;;;;;;;1.60;1.17;;;12.20;98.20;;;;;;5006757;23;20487;-82
2023/11/05 12:54:30;;;;;;;1.60;1.00;;;12.40;98.20;;;;;;4994924;28;20981;-80
2023/11/05 12:56:58;;;;;;;1.53;1.00;;;12.60;98.20;;;;;;4984160;28;20481;-80
2023/11/05 12:59:27;;;;;;;1.60;1.00;;;12.70;98.20;;;;;;4988470;28;20461;-81
2023/11/05 13:01:54;;;;;;;1.60;1.10;;;12.90;98.20;;;;;;4983442;28;20494;-81
2023/11/05 13:04:21;;;;;;;1.60;1.00;;;12.90;98.20;;;;;;4989173;28;20465;-81
2023/11/05 13:06:49;;;;;;;1.53;1.00;;;13.00;98.20;;;;;;4981857;28;20547;-80
2023/11/05 13:09:16;;;;;;;1.60;1.00;;;13.00;98.20;;;;;;4988617;28;20465;-80
2023/11/05 13:11:44;;;;;;;1.53;1.00;;;13.00;98.20;;;;;;4982064;28;20638;-81
2023/11/05 13:14:11;;;;;;;1.60;1.00;;;13.00;98.20;;;;;;4991199;28;20461;-80
2023/11/05 13:16:39;;;;;;;1.60;1.10;;;13.00;98.20;;;;;;4981643;28;20571;-80
2023/11/05 13:19:06;;;;;;;1.60;1.27;;;13.00;98.20;;;;;;4994192;28;20465;-82